Time;durP1;ratioP1;P1;durP2;ratioP2;P2;SDS_P1;SDS_P2;PMS_P1;PMS_P2;Temp;Humidity;BMP_temperature;BMP_pressure;BME280_temperature;BME280_humidity;BME280_pressure;Samples;Min_cycle;Max_cycle;Signal;HPM_P1;HPM_P2
2022/07/13 00:00:29;;;;;;;6.37;6.07;;;;;;;;;;5065710;28;20445;-93
2022/07/13 00:02:55;;;;;;;6.97;6.60;;;;;;;;;;5096763;28;20440;-93
2022/07/13 00:05:21;;;;;;;7.10;6.60;;;;;;;;;;5105133;28;20469;-92
2022/07/13 00:07:47;;;;;;;6.63;6.33;;;;;;;;;;5097666;28;20416;-93
2022/07/13 00:10:13;;;;;;;7.30;6.67;;;;;;;;;;5094434;28;20459;-93
2022/07/13 00:12:42;;;;;;;6.00;5.63;;;;;;;;;;5116490;28;20436;-93
2022/07/13 00:15:08;;;;;;;6.00;5.80;;;;;;;;;;5099561;28;20451;-93
2022/07/13 00:17:37;;;;;;;7.70;7.10;;;;;;;;;;5101783;28;20446;-92
2022/07/13 00:20:03;;;;;;;6.33;6.03;;;;;;;;;;5077783;28;20449;-93
2022/07/13 00:22:34;;;;;;;7.03;6.53;;;;;;;;;;5101620;28;20435;-93
2022/07/13 00:25:01;;;;;;;6.50;6.20;;;;;;;;;;5060296;28;20477;-93
2022/07/13 00:27:27;;;;;;;7.20;6.83;;;;;;;;;;5082733;28;20443;-93
2022/07/13 00:29:55;;;;;;;6.53;6.23;;;;;;;;;;5102446;28;20479;-93
2022/07/13 00:32:21;;;;;;;7.10;6.43;;;;;;;;;;5079883;28;20593;-93
2022/07/13 00:34:50;;;;;;;6.53;6.13;;;;;;;;;;5114578;28;20429;-92
2022/07/13 00:37:19;;;;;;;8.10;7.40;;;;;;;;;;5103287;28;20434;-94
2022/07/13 00:39:47;;;;;;;7.03;6.63;;;;;;;;;;5085120;28;20465;-94
2022/07/13 00:42:13;;;;;;;7.07;6.40;;;;;;;;;;5090958;28;20408;-93
2022/07/13 00:44:41;;;;;;;6.17;5.97;;;;;;;;;;5091620;28;20432;-93
2022/07/13 00:47:07;;;;;;;6.70;6.40;;;;;;;;;;5075452;28;20434;-94
2022/07/13 00:49:33;;;;;;;7.90;7.30;;;;;;;;;;5094080;28;20464;-93
2022/07/13 00:52:00;;;;;;;7.90;7.40;;;;;;;;;;5079284;28;20433;-92
2022/07/13 00:54:29;;;;;;;6.90;6.50;;;;;;;;;;5096797;28;20452;-94
2022/07/13 00:56:57;;;;;;;7.40;7.00;;;;;;;;;;5081256;28;20439;-94
2022/07/13 00:59:26;;;;;;;8.23;7.83;;;;;;;;;;5093300;28;20442;-93
2022/07/13 01:01:56;;;;;;;7.93;7.53;;;;;;;;;;5072877;28;20406;-95
2022/07/13 01:04:25;;;;;;;7.63;7.17;;;;;;;;;;5088481;28;20452;-94
2022/07/13 01:06:55;;;;;;;8.17;7.57;;;;;;;;;;5096033;28;20417;-94
2022/07/13 01:09:22;;;;;;;8.50;8.10;;;;;;;;;;5095333;28;20443;-94
2022/07/13 01:11:48;;;;;;;8.50;8.10;;;;;;;;;;5114671;28;20448;-94
2022/07/13 01:14:17;;;;;;;9.07;8.47;;;;;;;;;;5072543;28;20437;-94
2022/07/13 01:16:45;;;;;;;9.00;8.50;;;;;;;;;;5092021;28;20425;-95
2022/07/13 01:19:12;;;;;;;7.53;7.20;;;;;;;;;;5066564;28;20432;-93
2022/07/13 01:21:42;;;;;;;8.93;8.43;;;;;;;;;;5055814;28;20430;-95
2022/07/13 01:24:08;;;;;;;8.67;7.97;;;;;;;;;;5080515;28;20433;-94
2022/07/13 01:26:34;;;;;;;8.47;8.03;;;;;;;;;;5091741;28;20449;-95
2022/07/13 01:29:00;;;;;;;9.43;8.63;;;;;;;;;;5093698;28;20448;-94
2022/07/13 01:31:47;;;;;;;8.87;8.27;;;;;;;;;;5092513;28;20472;-94
2022/07/13 01:34:16;;;;;;;7.83;7.30;;;;;;;;;;5063930;28;20460;-94
2022/07/13 01:36:42;;;;;;;8.97;8.27;;;;;;;;;;5095101;28;20456;-94
2022/07/13 01:39:09;;;;;;;8.23;7.60;;;;;;;;;;5079777;28;20465;-94
2022/07/13 01:41:36;;;;;;;8.43;8.03;;;;;;;;;;5108093;28;20428;-94
2022/07/13 01:44:02;;;;;;;8.70;8.13;;;;;;;;;;5079644;28;20429;-89
2022/07/13 01:46:29;;;;;;;9.03;8.43;;;;;;;;;;5088426;28;20432;-95
2022/07/13 01:49:04;;;;;;;8.90;8.17;;;;;;;;;;5115616;28;20441;-94
2022/07/13 01:51:35;;;;;;;7.90;7.37;;;;;;;;;;5062148;28;20440;-94
2022/07/13 01:54:04;;;;;;;10.63;9.53;;;;;;;;;;5098742;28;20437;-95
2022/07/13 02:49:01;;;;;;;9.03;8.53;;;;;;;;;;5570461;22;20473;-92
2022/07/13 02:51:30;;;;;;;7.70;7.20;;;;;;;;;;5097744;28;20421;-93
2022/07/13 02:54:03;;;;;;;7.50;7.00;;;;;;;;;;5060832;28;20472;-93
2022/07/13 02:56:35;;;;;;;8.93;8.00;;;;;;;;;;5077177;28;20417;-93
2022/07/13 03:53:35;;;;;;;7.93;7.53;;;;;;;;;;4749853;22;20535;-92
2022/07/13 03:56:05;;;;;;;8.23;7.20;;;;;;;;;;5080693;28;20435;-93
2022/07/13 03:58:31;;;;;;;8.00;7.60;;;;;;;;;;5094203;28;20432;-92
2022/07/13 04:01:00;;;;;;;7.73;7.33;;;;;;;;;;5101579;28;20546;-94
2022/07/13 04:03:26;;;;;;;8.10;7.53;;;;;;;;;;5081576;28;20416;-93
2022/07/13 04:05:52;;;;;;;7.30;6.90;;;;;;;;;;5086563;28;20420;-94
2022/07/13 04:08:31;;;;;;;7.33;6.77;;;;;;;;;;5084331;28;20451;-94
2022/07/13 04:11:00;;;;;;;9.43;8.60;;;;;;;;;;5104538;28;20463;-94
2022/07/13 04:13:28;;;;;;;6.73;6.43;;;;;;;;;;5079714;28;20433;-93
2022/07/13 04:18:32;;;;;;;6.90;6.57;;;;;;;;;;5125622;23;20493;-93
2022/07/13 04:20:58;;;;;;;7.00;6.57;;;;;;;;;;5120075;28;20412;-94
2022/07/13 04:23:36;;;;;;;7.23;6.70;;;;;;;;;;5572947;22;20528;-92
2022/07/13 04:26:04;;;;;;;7.10;6.50;;;;;;;;;;5072861;28;20445;-93
2022/07/13 04:28:35;;;;;;;6.37;6.17;;;;;;;;;;5269320;23;20470;-93
2022/07/13 04:31:06;;;;;;;6.63;6.07;;;;;;;;;;5055280;28;20478;-95
2022/07/13 04:33:35;;;;;;;6.90;6.40;;;;;;;;;;5046359;28;20460;-94
2022/07/13 04:56:55;;;;;;;6.73;6.13;;;;;;;;;;5001689;22;20480;-95
2022/07/13 04:59:21;;;;;;;5.60;5.40;;;;;;;;;;5279635;22;20467;-93
2022/07/13 05:07:00;;;;;;;5.30;5.10;;;;;;;;;;5321224;22;20540;-92
2022/07/13 05:09:26;;;;;;;5.60;5.40;;;;;;;;;;5096845;28;20464;-95
2022/07/13 05:11:53;;;;;;;5.47;5.17;;;;;;;;;;5643939;22;20485;-93
2022/07/13 05:14:23;;;;;;;6.07;5.90;;;;;;;;;;5981794;22;22120;-92
2022/07/13 05:16:49;;;;;;;5.00;4.80;;;;;;;;;;5089605;28;20530;-90
2022/07/13 05:19:21;;;;;;;5.40;5.20;;;;;;;;;;5097717;28;20416;-94
2022/07/13 05:21:50;;;;;;;5.57;5.30;;;;;;;;;;5381620;23;21010;-89
2022/07/13 05:32:22;;;;;;;4.80;4.50;;;;;;;;;;5660192;22;20472;-88
2022/07/13 05:34:49;;;;;;;5.17;4.60;;;;;;;;;;5059432;28;20414;-92
2022/07/13 05:37:21;;;;;;;5.03;4.83;;;;;;;;;;5291044;22;20484;-94
2022/07/13 05:39:50;;;;;;;4.73;4.40;;;;;;;;;;5059581;28;20448;-93
2022/07/13 05:42:22;;;;;;;4.10;3.83;;;;;;;;;;5538132;22;20479;-92
2022/07/13 05:50:38;;;;;;;4.87;3.50;;;;;;;;;;5210091;22;20515;-91
2022/07/13 05:53:04;;;;;;;2.60;2.60;;;;;;;;;;5056988;28;20438;-91
2022/07/13 05:55:36;;;;;;;2.90;2.90;;;;;;;;;;5055721;28;20521;-93
2022/07/13 05:58:05;;;;;;;2.87;2.77;;;;;;;;;;5297169;23;20464;-92
2022/07/13 06:00:48;;;;;;;2.77;2.70;;;;;;;;;;5094641;28;20480;-94
2022/07/13 06:03:18;;;;;;;3.13;2.63;;;;;;;;;;5159682;22;20500;-93
2022/07/13 06:05:44;;;;;;;2.83;2.73;;;;;;;;;;5075494;28;20444;-93
2022/07/13 06:08:10;;;;;;;2.37;2.37;;;;;;;;;;5056722;28;20430;-90
2022/07/13 06:10:36;;;;;;;2.50;2.40;;;;;;;;;;5072232;28;20491;-94
2022/07/13 06:13:03;;;;;;;3.13;2.20;;;;;;;;;;5167755;23;20507;-93
2022/07/13 06:15:29;;;;;;;2.47;2.37;;;;;;;;;;5073972;28;20462;-93
2022/07/13 06:17:55;;;;;;;2.83;2.83;;;;;;;;;;5053726;28;20441;-92
2022/07/13 06:20:21;;;;;;;2.77;2.40;;;;;;;;;;5052648;28;20440;-92
2022/07/13 06:23:09;;;;;;;2.17;2.17;;;;;;;;;;5056443;28;20444;-95
2022/07/13 06:25:36;;;;;;;2.50;2.40;;;;;;;;;;5048588;28;20423;-94
2022/07/13 06:28:02;;;;;;;2.00;2.00;;;;;;;;;;5053482;28;20442;-92
2022/07/13 06:30:28;;;;;;;2.40;2.40;;;;;;;;;;5067207;28;20465;-94
2022/07/13 06:32:54;;;;;;;2.80;2.60;;;;;;;;;;5358438;23;20536;-92
2022/07/13 06:35:20;;;;;;;2.80;2.70;;;;;;;;;;5414041;22;20447;-90
2022/07/13 06:40:26;;;;;;;2.50;2.00;;;;;;;;;;5199204;22;20503;-94
2022/07/13 06:42:52;;;;;;;2.67;2.67;;;;;;;;;;5070696;28;20444;-88
2022/07/13 06:45:18;;;;;;;2.80;2.70;;;;;;;;;;5092317;28;20432;-94
2022/07/13 06:47:44;;;;;;;2.97;2.87;;;;;;;;;;5063287;28;20429;-95
2022/07/13 06:50:10;;;;;;;3.00;2.80;;;;;;;;;;5106911;28;20462;-90
2022/07/13 06:52:42;;;;;;;2.23;2.20;;;;;;;;;;5071337;28;20429;-94
2022/07/13 06:55:09;;;;;;;2.57;2.50;;;;;;;;;;5065974;28;20404;-95
2022/07/13 06:57:38;;;;;;;5.00;2.90;;;;;;;;;;5073044;28;20850;-89
2022/07/13 07:00:05;;;;;;;2.90;2.80;;;;;;;;;;5071929;28;20796;-94
2022/07/13 07:02:32;;;;;;;2.60;2.60;;;;;;;;;;5069796;28;20439;-95
2022/07/13 07:04:58;;;;;;;2.77;2.37;;;;;;;;;;5088658;28;20417;-91
2022/07/13 07:07:28;;;;;;;2.83;2.73;;;;;;;;;;5174694;22;20477;-92
2022/07/13 07:09:57;;;;;;;2.57;2.37;;;;;;;;;;5093988;28;20487;-95
2022/07/13 07:12:25;;;;;;;2.93;2.80;;;;;;;;;;5230073;22;20512;-92
2022/07/13 07:22:44;;;;;;;2.27;2.27;;;;;;;;;;4480800;22;20723;-89
2022/07/13 07:25:10;;;;;;;4.13;2.77;;;;;;;;;;5323422;22;20446;-92
2022/07/13 07:27:37;;;;;;;4.20;3.17;;;;;;;;;;5086347;28;20426;-92
2022/07/13 07:30:03;;;;;;;2.83;2.83;;;;;;;;;;5064120;28;20658;-94
2022/07/13 07:32:30;;;;;;;2.80;2.60;;;;;;;;;;5061523;28;20970;-92
2022/07/13 07:34:56;;;;;;;3.73;2.60;;;;;;;;;;5065474;28;20429;-92
2022/07/13 07:37:22;;;;;;;2.93;2.70;;;;;;;;;;5077725;28;20448;-92
2022/07/13 07:39:49;;;;;;;2.50;2.40;;;;;;;;;;5060124;28;20414;-93
2022/07/13 07:42:16;;;;;;;2.93;2.73;;;;;;;;;;5075136;28;20440;-93
2022/07/13 07:44:42;;;;;;;2.70;2.60;;;;;;;;;;5064600;28;20852;-89
2022/07/13 07:47:08;;;;;;;3.10;2.97;;;;;;;;;;5067877;28;20797;-91
2022/07/13 07:49:35;;;;;;;3.10;2.90;;;;;;;;;;5064806;28;20467;-91
2022/07/13 07:52:01;;;;;;;3.60;2.97;;;;;;;;;;5071708;28;20472;-89
2022/07/13 07:54:27;;;;;;;6.80;2.93;;;;;;;;;;5072844;28;20467;-91
2022/07/13 07:56:53;;;;;;;2.80;2.80;;;;;;;;;;5073602;28;20429;-92
2022/07/13 07:59:19;;;;;;;3.23;3.03;;;;;;;;;;5072284;28;20444;-91
2022/07/13 08:01:45;;;;;;;2.93;2.83;;;;;;;;;;5056430;28;20448;-90
2022/07/13 08:04:11;;;;;;;3.27;3.17;;;;;;;;;;5061301;28;20441;-90
2022/07/13 08:06:38;;;;;;;2.30;2.30;;;;;;;;;;5062917;28;20589;-90
2022/07/13 08:09:04;;;;;;;3.00;2.90;;;;;;;;;;5054756;28;20428;-90
2022/07/13 08:11:30;;;;;;;3.57;2.80;;;;;;;;;;5053172;28;20819;-88
2022/07/13 08:13:56;;;;;;;2.77;2.67;;;;;;;;;;5073778;28;20429;-89
2022/07/13 08:16:23;;;;;;;3.17;2.97;;;;;;;;;;5065793;28;20460;-91
2022/07/13 08:18:49;;;;;;;2.60;2.53;;;;;;;;;;5077902;28;20405;-90
2022/07/13 08:21:15;;;;;;;2.83;2.73;;;;;;;;;;5063610;28;20809;-91
2022/07/13 08:23:51;;;;;;;2.83;2.83;;;;;;;;;;5063757;28;20432;-90
2022/07/13 08:26:17;;;;;;;2.87;2.77;;;;;;;;;;5058221;28;20452;-89
2022/07/13 08:28:44;;;;;;;2.90;2.90;;;;;;;;;;5058926;28;20432;-90
2022/07/13 08:31:11;;;;;;;4.77;3.17;;;;;;;;;;5074054;28;20518;-91
2022/07/13 08:39:07;;;;;;;2.70;2.70;;;;;;;;;;5065600;28;20611;-90
2022/07/13 08:41:33;;;;;;;2.47;2.43;;;;;;;;;;5061047;28;20446;-90
2022/07/13 08:44:00;;;;;;;7.70;2.30;;;;;;;;;;5061456;28;20783;-89
2022/07/13 08:46:26;;;;;;;3.77;3.57;;;;;;;;;;5070657;28;20911;-91
2022/07/13 08:48:54;;;;;;;2.80;2.60;;;;;;;;;;5057256;28;20416;-87
2022/07/13 08:51:21;;;;;;;4.60;2.77;;;;;;;;;;5059357;28;20448;-89
2022/07/13 08:53:56;;;;;;;2.63;2.50;;;;;;;;;;5057130;28;20557;-85
2022/07/13 08:56:22;;;;;;;3.63;3.00;;;;;;;;;;4721084;28;9999626;-89
2022/07/13 08:58:48;;;;;;;3.17;2.97;;;;;;;;;;5045165;28;20269;-89
2022/07/13 09:01:17;;;;;;;3.73;3.47;;;;;;;;;;5053950;28;20491;-90
2022/07/13 09:03:46;;;;;;;3.50;2.87;;;;;;;;;;5058459;28;20475;-93
2022/07/13 09:38:31;;;;;;;4.07;3.80;;;;;;;;;;5129063;23;20516;-89
2022/07/13 09:41:01;;;;;;;2.87;2.87;;;;;;;;;;5044558;28;20563;-90
2022/07/13 09:46:12;;;;;;;2.90;2.80;;;;;;;;;;5060579;28;20424;-88
2022/07/13 09:48:38;;;;;;;3.40;3.20;;;;;;;;;;5062394;28;20425;-87
2022/07/13 09:51:12;;;;;;;3.23;3.03;;;;;;;;;;5046235;28;20484;-89
2022/07/13 09:53:38;;;;;;;2.70;2.70;;;;;;;;;;5047076;28;20533;-89
2022/07/13 09:56:07;;;;;;;3.30;3.20;;;;;;;;;;5054205;28;20453;-88
2022/07/13 09:58:33;;;;;;;3.33;3.20;;;;;;;;;;5040321;28;20441;-89
2022/07/13 10:01:07;;;;;;;2.80;2.70;;;;;;;;;;5053932;28;20794;-89
2022/07/13 10:03:47;;;;;;;2.90;2.80;;;;;;;;;;5063108;28;20453;-88
2022/07/13 10:06:20;;;;;;;2.97;2.83;;;;;;;;;;5035093;28;20461;-88
2022/07/13 10:09:02;;;;;;;3.53;3.33;;;;;;;;;;5039027;28;20444;-87
2022/07/13 10:11:44;;;;;;;7.43;3.00;;;;;;;;;;5022908;28;20474;-89
2022/07/13 10:14:19;;;;;;;2.83;2.73;;;;;;;;;;5047897;28;20444;-87
2022/07/13 10:17:23;;;;;;;3.60;3.30;;;;;;;;;;5040736;28;20436;-90
2022/07/13 10:19:52;;;;;;;2.87;2.67;;;;;;;;;;5028736;28;20436;-91
2022/07/13 10:22:29;;;;;;;4.23;4.13;;;;;;;;;;5051709;28;20448;-89
2022/07/13 10:25:00;;;;;;;5.83;5.47;;;;;;;;;;5057612;23;20483;-91
2022/07/13 10:30:51;;;;;;;5.80;2.83;;;;;;;;;;5128178;22;20481;-90
2022/07/13 10:49:51;;;;;;;5.70;4.37;;;;;;;;;;5075167;28;20614;-86
2022/07/13 10:52:21;;;;;;;3.03;2.83;;;;;;;;;;5048914;28;20470;-90
2022/07/13 10:55:11;;;;;;;2.93;2.83;;;;;;;;;;5073725;28;20516;-89
2022/07/13 10:57:38;;;;;;;3.20;3.03;;;;;;;;;;5052159;28;20434;-89
2022/07/13 11:00:30;;;;;;;3.23;3.07;;;;;;;;;;5074206;28;20423;-89
2022/07/13 11:03:04;;;;;;;2.50;2.50;;;;;;;;;;5050612;28;20460;-90
2022/07/13 11:05:34;;;;;;;7.20;3.63;;;;;;;;;;5058105;28;20417;-89
2022/07/13 11:08:21;;;;;;;3.10;3.10;;;;;;;;;;5062468;28;20842;-89
2022/07/13 11:11:09;;;;;;;2.90;2.70;;;;;;;;;;5045037;28;20523;-89
2022/07/13 11:13:36;;;;;;;2.90;2.90;;;;;;;;;;4706068;28;10000101;-89
2022/07/13 11:16:14;;;;;;;3.47;3.37;;;;;;;;;;5073185;28;20186;-89
2022/07/13 11:18:52;;;;;;;3.80;3.23;;;;;;;;;;5064367;28;20747;-90
2022/07/13 11:21:22;;;;;;;2.97;2.70;;;;;;;;;;5055726;28;20431;-90
2022/07/13 11:26:48;;;;;;;2.77;2.67;;;;;;;;;;5057373;28;20537;-89
2022/07/13 11:29:26;;;;;;;3.33;3.23;;;;;;;;;;5080091;28;20607;-90
2022/07/13 11:31:57;;;;;;;3.27;3.17;;;;;;;;;;5072102;28;20444;-90
2022/07/13 11:34:24;;;;;;;3.00;2.90;;;;;;;;;;5065012;28;20401;-90
2022/07/13 11:36:57;;;;;;;4.10;3.80;;;;;;;;;;5064154;28;20452;-90
2022/07/13 11:39:30;;;;;;;6.43;3.77;;;;;;;;;;5060848;28;20409;-88
2022/07/13 11:41:57;;;;;;;2.60;2.50;;;;;;;;;;5049016;28;20428;-89
2022/07/13 11:44:30;;;;;;;4.77;3.17;;;;;;;;;;5062609;28;20425;-90
2022/07/13 11:47:01;;;;;;;2.50;2.50;;;;;;;;;;5063042;28;20516;-89
2022/07/13 11:49:27;;;;;;;3.00;2.90;;;;;;;;;;5055555;28;20469;-90
2022/07/13 11:51:54;;;;;;;6.73;4.40;;;;;;;;;;5052305;28;20447;-91
2022/07/13 11:54:21;;;;;;;2.77;2.67;;;;;;;;;;5050864;28;20802;-89
2022/07/13 11:56:50;;;;;;;3.33;3.03;;;;;;;;;;5048948;28;20426;-90
2022/07/13 11:59:33;;;;;;;3.37;3.17;;;;;;;;;;5045207;28;20417;-88
2022/07/13 12:02:01;;;;;;;3.53;3.23;;;;;;;;;;5064748;28;20926;-90
2022/07/13 12:04:27;;;;;;;9.23;3.27;;;;;;;;;;5051010;28;20438;-90
2022/07/13 12:07:09;;;;;;;3.03;2.93;;;;;;;;;;5051199;28;20443;-91
2022/07/13 12:09:36;;;;;;;8.13;2.93;;;;;;;;;;5053845;28;20448;-90
2022/07/13 12:12:02;;;;;;;2.60;2.60;;;;;;;;;;5054616;28;20425;-91
2022/07/13 12:14:28;;;;;;;3.50;3.17;;;;;;;;;;5055915;28;20425;-91
2022/07/13 12:17:09;;;;;;;3.43;3.10;;;;;;;;;;5052436;28;20436;-85
2022/07/13 12:19:45;;;;;;;3.70;3.60;;;;;;;;;;5055773;28;20982;-89
2022/07/13 12:22:24;;;;;;;4.47;3.33;;;;;;;;;;5052684;28;20565;-89
2022/07/13 12:24:50;;;;;;;5.93;3.10;;;;;;;;;;5048218;28;20500;-91
2022/07/13 12:27:23;;;;;;;6.70;3.40;;;;;;;;;;5052818;28;20426;-90
2022/07/13 12:29:52;;;;;;;3.03;3.00;;;;;;;;;;5062543;28;20465;-90
2022/07/13 12:32:42;;;;;;;3.80;3.60;;;;;;;;;;5064441;28;20449;-93
2022/07/13 12:35:15;;;;;;;5.80;5.20;;;;;;;;;;5056278;28;20784;-88
2022/07/13 12:37:41;;;;;;;3.60;3.43;;;;;;;;;;5044742;28;20708;-87
2022/07/13 12:40:08;;;;;;;3.70;3.50;;;;;;;;;;5049287;28;20487;-87
2022/07/13 12:42:46;;;;;;;3.40;3.30;;;;;;;;;;5045385;28;20430;-89
2022/07/13 12:45:16;;;;;;;4.47;4.30;;;;;;;;;;5050147;28;20437;-88
2022/07/13 12:47:42;;;;;;;4.57;4.30;;;;;;;;;;5048752;28;20433;-88
2022/07/13 12:50:26;;;;;;;4.57;4.23;;;;;;;;;;5069726;28;20475;-88
2022/07/13 12:52:59;;;;;;;4.73;4.57;;;;;;;;;;5050930;28;20447;-87
2022/07/13 12:55:25;;;;;;;4.70;4.30;;;;;;;;;;5070754;28;20408;-87
2022/07/13 12:57:51;;;;;;;4.23;3.93;;;;;;;;;;5067825;28;20460;-87
2022/07/13 13:00:25;;;;;;;4.60;4.27;;;;;;;;;;5072788;28;20443;-87
2022/07/13 13:02:51;;;;;;;6.17;4.10;;;;;;;;;;5054639;28;20539;-88
2022/07/13 13:05:17;;;;;;;3.97;3.87;;;;;;;;;;5052776;28;20549;-88
2022/07/13 13:07:43;;;;;;;4.80;4.33;;;;;;;;;;5058126;28;20506;-87
2022/07/13 13:10:10;;;;;;;3.93;3.83;;;;;;;;;;5068414;28;20492;-87
2022/07/13 13:12:36;;;;;;;4.33;3.70;;;;;;;;;;5065350;28;20469;-88
2022/07/13 13:15:03;;;;;;;4.13;4.03;;;;;;;;;;5073930;28;20428;-88
2022/07/13 13:17:29;;;;;;;3.50;3.30;;;;;;;;;;5057182;28;20465;-88
2022/07/13 13:19:56;;;;;;;4.20;4.10;;;;;;;;;;4707083;28;10000581;-89
2022/07/13 13:22:27;;;;;;;5.90;4.47;;;;;;;;;;5045615;28;20284;-89
2022/07/13 13:24:53;;;;;;;4.40;4.10;;;;;;;;;;5050652;28;20464;-87
2022/07/13 13:27:20;;;;;;;3.93;3.73;;;;;;;;;;5060475;28;20460;-89
2022/07/13 13:32:36;;;;;;;4.07;3.87;;;;;;;;;;5083257;28;20478;-90
2022/07/13 13:35:02;;;;;;;4.93;4.50;;;;;;;;;;5069579;28;20449;-87
2022/07/13 13:37:28;;;;;;;4.80;4.50;;;;;;;;;;5087292;28;20601;-90
2022/07/13 13:39:55;;;;;;;4.47;4.27;;;;;;;;;;5077870;28;20937;-88
2022/07/13 13:42:23;;;;;;;4.20;4.00;;;;;;;;;;5073394;28;20436;-89
2022/07/13 13:45:18;;;;;;;6.23;3.83;;;;;;;;;;5078121;28;20412;-89
2022/07/13 13:47:47;;;;;;;4.50;4.20;;;;;;;;;;5071162;28;20520;-88
2022/07/13 13:50:14;;;;;;;4.43;4.23;;;;;;;;;;5072002;28;20476;-89
2022/07/13 13:52:41;;;;;;;4.27;4.00;;;;;;;;;;5073460;28;20472;-90
2022/07/13 13:55:08;;;;;;;4.23;3.93;;;;;;;;;;5079951;28;20444;-89
2022/07/13 13:57:34;;;;;;;6.20;4.23;;;;;;;;;;5058780;28;20455;-91
2022/07/13 14:00:10;;;;;;;4.00;3.90;;;;;;;;;;5061862;28;20443;-91
2022/07/13 14:02:36;;;;;;;3.27;3.10;;;;;;;;;;5054067;28;20501;-91
2022/07/13 14:05:02;;;;;;;5.77;3.63;;;;;;;;;;5053995;28;20874;-89
2022/07/13 14:07:28;;;;;;;3.87;3.67;;;;;;;;;;5072866;28;20504;-89
2022/07/13 14:10:00;;;;;;;4.20;4.00;;;;;;;;;;5059046;28;20460;-90
2022/07/13 14:12:26;;;;;;;3.20;2.97;;;;;;;;;;5065987;28;20795;-90
2022/07/13 14:14:52;;;;;;;3.07;2.87;;;;;;;;;;5080024;28;20475;-91
2022/07/13 14:17:18;;;;;;;2.60;2.33;;;;;;;;;;5063629;28;20414;-88
2022/07/13 14:19:46;;;;;;;2.40;2.40;;;;;;;;;;5061622;28;20574;-90
2022/07/13 14:22:13;;;;;;;3.00;1.67;;;;;;;;;;5055872;28;20440;-89
2022/07/13 14:24:40;;;;;;;2.07;2.07;;;;;;;;;;5072748;28;20777;-88
2022/07/13 14:27:06;;;;;;;1.97;1.97;;;;;;;;;;5066388;28;20946;-91
2022/07/13 14:29:32;;;;;;;3.20;3.10;;;;;;;;;;5047273;28;20493;-89
2022/07/13 14:32:00;;;;;;;2.30;2.30;;;;;;;;;;5071464;28;20532;-90
2022/07/13 14:34:26;;;;;;;1.90;1.90;;;;;;;;;;5049978;28;20454;-91
2022/07/13 14:36:53;;;;;;;2.70;2.60;;;;;;;;;;4710269;28;10000531;-91
2022/07/13 14:39:19;;;;;;;2.20;2.10;;;;;;;;;;5055265;28;20641;-89
2022/07/13 14:41:46;;;;;;;2.33;2.33;;;;;;;;;;5057622;28;20436;-91
2022/07/13 14:44:13;;;;;;;4.13;2.97;;;;;;;;;;5056912;28;20429;-90
2022/07/13 14:46:41;;;;;;;4.33;4.23;;;;;;;;;;5052900;28;20421;-91
2022/07/13 14:49:08;;;;;;;2.80;2.70;;;;;;;;;;5051372;28;20536;-86
2022/07/13 14:51:34;;;;;;;2.33;2.23;;;;;;;;;;5052326;28;20557;-90
2022/07/13 14:54:04;;;;;;;2.90;2.80;;;;;;;;;;5060429;28;20433;-89
2022/07/13 14:56:32;;;;;;;2.63;2.37;;;;;;;;;;5050208;28;20458;-89
2022/07/13 14:58:59;;;;;;;2.80;2.60;;;;;;;;;;5049281;28;20452;-88
2022/07/13 15:01:25;;;;;;;2.80;2.80;;;;;;;;;;5046421;28;20430;-89
2022/07/13 15:03:51;;;;;;;2.67;2.50;;;;;;;;;;5043869;28;20453;-89
2022/07/13 15:06:20;;;;;;;2.73;2.63;;;;;;;;;;5055369;28;20432;-90
2022/07/13 15:08:47;;;;;;;3.23;3.00;;;;;;;;;;5052831;28;20489;-88
2022/07/13 15:11:13;;;;;;;3.10;3.00;;;;;;;;;;5055952;28;20465;-91
2022/07/13 15:13:39;;;;;;;3.03;2.90;;;;;;;;;;5060473;28;20516;-91
2022/07/13 15:16:05;;;;;;;3.47;3.07;;;;;;;;;;5052335;28;20430;-88
2022/07/13 15:18:33;;;;;;;4.07;4.07;;;;;;;;;;5051382;28;20450;-89
2022/07/13 15:20:59;;;;;;;3.83;3.30;;;;;;;;;;5049145;28;20441;-90
2022/07/13 15:23:25;;;;;;;3.20;3.00;;;;;;;;;;5056507;28;20426;-89
2022/07/13 15:25:52;;;;;;;4.20;2.63;;;;;;;;;;5054854;28;20494;-90
2022/07/13 15:28:18;;;;;;;3.30;3.30;;;;;;;;;;5064448;28;20437;-88
2022/07/13 15:30:45;;;;;;;3.23;3.13;;;;;;;;;;5064326;28;20465;-88
2022/07/13 15:33:15;;;;;;;3.20;3.00;;;;;;;;;;5066403;28;20439;-88
2022/07/13 15:35:41;;;;;;;2.80;2.80;;;;;;;;;;5066654;28;20412;-89
2022/07/13 15:38:08;;;;;;;2.77;2.77;;;;;;;;;;5067477;28;20446;-88
2022/07/13 15:43:19;;;;;;;2.80;2.80;;;;;;;;;;5048898;28;20433;-89
2022/07/13 15:45:45;;;;;;;2.97;2.87;;;;;;;;;;5038894;28;20433;-88
2022/07/13 15:48:11;;;;;;;3.80;3.50;;;;;;;;;;5053510;28;20449;-90
2022/07/13 15:50:37;;;;;;;3.17;3.07;;;;;;;;;;5052016;28;20671;-89
2022/07/13 15:53:06;;;;;;;5.67;2.70;;;;;;;;;;5049914;28;20450;-88
2022/07/13 15:55:53;;;;;;;3.10;3.03;;;;;;;;;;5072898;28;20405;-89
2022/07/13 15:58:19;;;;;;;2.80;2.80;;;;;;;;;;5048994;28;20451;-91
2022/07/13 16:00:45;;;;;;;2.57;2.37;;;;;;;;;;5059096;28;21027;-88
2022/07/13 16:03:13;;;;;;;2.30;2.30;;;;;;;;;;5052299;28;20438;-89
2022/07/13 16:05:45;;;;;;;3.00;2.70;;;;;;;;;;4701602;28;9999886;-90
2022/07/13 16:08:12;;;;;;;3.50;3.20;;;;;;;;;;5050091;28;20183;-88
2022/07/13 16:10:38;;;;;;;2.90;2.80;;;;;;;;;;5046022;28;20466;-88
2022/07/13 16:13:06;;;;;;;2.20;2.10;;;;;;;;;;5060803;28;20441;-88
2022/07/13 16:15:32;;;;;;;2.23;2.23;;;;;;;;;;5066266;28;20477;-86
2022/07/13 16:17:58;;;;;;;3.07;2.97;;;;;;;;;;5054362;28;20927;-89
2022/07/13 16:20:24;;;;;;;2.27;2.10;;;;;;;;;;5051121;28;21126;-88
2022/07/13 16:22:51;;;;;;;2.30;2.20;;;;;;;;;;5046189;28;20432;-91
2022/07/13 16:25:18;;;;;;;2.67;2.57;;;;;;;;;;5045547;28;20418;-89
2022/07/13 16:27:44;;;;;;;3.10;2.90;;;;;;;;;;5051430;28;20444;-89
2022/07/13 16:30:11;;;;;;;2.23;2.13;;;;;;;;;;5048794;28;20496;-90
2022/07/13 16:32:37;;;;;;;2.00;2.00;;;;;;;;;;5047718;28;21119;-89
2022/07/13 16:35:03;;;;;;;3.90;3.80;;;;;;;;;;5031070;28;20426;-89
2022/07/13 16:37:30;;;;;;;36.27;32.97;;;;;;;;;;4692664;28;10000274;-89
2022/07/13 16:39:56;;;;;;;2.20;2.10;;;;;;;;;;5050276;28;20440;-90
2022/07/13 16:42:22;;;;;;;1.83;1.83;;;;;;;;;;5054905;28;20508;-89
2022/07/13 16:44:48;;;;;;;1.90;1.90;;;;;;;;;;5045745;28;20902;-86
2022/07/13 16:47:15;;;;;;;1.60;1.60;;;;;;;;;;5049164;28;21002;-88
2022/07/13 16:49:41;;;;;;;2.50;2.40;;;;;;;;;;5044199;28;20469;-88
2022/07/13 16:52:09;;;;;;;1.47;1.37;;;;;;;;;;5042848;28;20448;-89
2022/07/13 16:54:38;;;;;;;2.20;2.20;;;;;;;;;;5049823;28;20434;-89
2022/07/13 16:57:08;;;;;;;1.40;1.40;;;;;;;;;;5051365;28;20465;-90
2022/07/13 16:59:35;;;;;;;3.77;1.80;;;;;;;;;;5023815;28;21281;-89
2022/07/13 17:02:03;;;;;;;1.33;1.33;;;;;;;;;;5052146;28;20436;-89
2022/07/13 17:04:29;;;;;;;1.90;1.80;;;;;;;;;;5050513;28;20469;-90
2022/07/13 17:06:59;;;;;;;1.70;1.60;;;;;;;;;;5052192;28;20943;-89
2022/07/13 17:09:25;;;;;;;1.50;1.50;;;;;;;;;;5047088;28;20437;-88
2022/07/13 17:11:51;;;;;;;1.60;1.60;;;;;;;;;;5055369;28;20472;-89
2022/07/13 17:14:19;;;;;;;1.70;1.70;;;;;;;;;;5058041;28;20468;-89
2022/07/13 17:16:45;;;;;;;1.30;1.30;;;;;;;;;;5051670;28;20495;-90
2022/07/13 17:19:11;;;;;;;3.40;1.80;;;;;;;;;;5048899;28;21164;-87
2022/07/13 17:21:38;;;;;;;2.00;1.90;;;;;;;;;;5050363;28;20956;-91
2022/07/13 17:24:31;;;;;;;1.40;1.40;;;;;;;;;;5052557;28;20594;-91
2022/07/13 17:26:58;;;;;;;1.73;1.73;;;;;;;;;;5045191;28;20430;-90
2022/07/13 17:29:24;;;;;;;1.40;1.40;;;;;;;;;;5045446;28;20442;-90
2022/07/13 17:31:50;;;;;;;1.80;1.80;;;;;;;;;;5051373;28;20998;-90
2022/07/13 17:34:18;;;;;;;1.50;1.50;;;;;;;;;;5060879;28;20511;-89
2022/07/13 17:36:44;;;;;;;1.40;1.40;;;;;;;;;;5056548;28;20530;-88
2022/07/13 17:39:11;;;;;;;1.53;1.53;;;;;;;;;;5052399;28;20802;-90
2022/07/13 17:42:05;;;;;;;1.77;1.67;;;;;;;;;;5044661;28;20445;-90
2022/07/13 17:44:32;;;;;;;1.50;1.40;;;;;;;;;;5044762;28;20509;-90
2022/07/13 17:47:06;;;;;;;1.50;1.50;;;;;;;;;;5055182;28;20449;-89
2022/07/13 17:49:32;;;;;;;1.70;1.60;;;;;;;;;;5052829;28;20746;-90
2022/07/13 17:51:58;;;;;;;5.43;2.20;;;;;;;;;;5050955;28;20433;-90
2022/07/13 17:54:24;;;;;;;1.40;1.40;;;;;;;;;;5046599;28;20439;-90
2022/07/13 17:56:50;;;;;;;1.67;1.63;;;;;;;;;;5055333;28;20437;-92
2022/07/13 17:59:22;;;;;;;1.67;1.67;;;;;;;;;;5048884;28;20491;-90
2022/07/13 18:01:51;;;;;;;1.83;1.80;;;;;;;;;;5043414;28;20425;-91
2022/07/13 18:04:37;;;;;;;1.70;1.70;;;;;;;;;;5048539;28;20468;-91
2022/07/13 18:07:13;;;;;;;1.90;1.90;;;;;;;;;;5051913;28;20422;-89
2022/07/13 18:09:41;;;;;;;5.20;1.57;;;;;;;;;;5061941;28;20438;-89
2022/07/13 18:12:16;;;;;;;1.70;1.60;;;;;;;;;;5050449;28;20467;-87
2022/07/13 18:14:45;;;;;;;4.70;4.40;;;;;;;;;;5048069;28;20426;-90
2022/07/13 18:20:07;;;;;;;3.10;2.90;;;;;;;;;;5015627;28;20446;-90
2022/07/13 18:22:36;;;;;;;1.90;1.73;;;;;;;;;;5053757;28;21016;-89
2022/07/13 18:37:57;;;;;;;2.43;2.33;;;;;;;;;;5093854;28;20463;-88
2022/07/13 18:40:24;;;;;;;4.23;1.80;;;;;;;;;;5088246;28;20436;-90
2022/07/13 18:42:51;;;;;;;2.63;2.10;;;;;;;;;;5084322;28;20687;-88
2022/07/13 18:45:17;;;;;;;2.50;2.30;;;;;;;;;;5083848;28;21043;-90
2022/07/13 18:47:44;;;;;;;4.57;4.47;;;;;;;;;;5096722;28;20961;-90
2022/07/13 18:50:12;;;;;;;4.33;4.13;;;;;;;;;;5087517;28;20467;-90
2022/07/13 18:52:38;;;;;;;2.83;2.83;;;;;;;;;;5095572;28;20463;-92
2022/07/13 18:55:05;;;;;;;2.90;2.80;;;;;;;;;;5095994;28;20452;-90
2022/07/13 18:57:33;;;;;;;3.27;3.10;;;;;;;;;;5094071;28;20960;-90